Federal Clyde — V7NK4 — position and weather

sailwx.info

Track history (hours):
 
Tides and Currents Weather Stations Pressure Air Temp Water Temp Dewpoint Dewpoint Depression Visibility Wind Speed Wind Dir Waves Ship Positions

Federal Clyde

Last reported at 2017-Dec-26 00:43 UTC. Time now 2018-Feb-19 01:54 UTC.
Position N 45°30' W 073°31'.
Warning: this ship's position is 55 days out of date.

Length 200 m; draft 7.7 m.

Type: Cargo ship. MMSI: 538006470.

Date/timePositionNaut miles runAvg speedWind from/ knotsBaromVisibWave heightAir tempDewpointWater temp
2017-Dec-26 00:43N 45°30' W 073°31'0 0.7
2017-Dec-26 00:04N 45°30' W 073°31'0 1.1
2017-Dec-25 23:57N 45°29' W 073°31'1 0.6
2017-Dec-25 22:32N 45°29' W 073°31'0 0.6
2017-Dec-25 22:30N 45°29' W 073°31'1 2.3
2017-Dec-25 22:00N 45°27' W 073°30'3 4.7
2017-Dec-25 21:28N 45°25' W 073°31'2 2.4
2017-Dec-25 20:27N 45°24' W 073°34'0 0.3
2017-Dec-25 18:41N 45°24' W 073°35'0 0.0
2017-Dec-25 17:26N 45°24' W 073°35'0 0.6
2017-Dec-25 17:00N 45°24' W 073°35'1 1.5
2017-Dec-25 16:30N 45°24' W 073°36'0 0.6
2017-Dec-25 16:00N 45°24' W 073°37'0 0.0
2017-Dec-25 15:17N 45°24' W 073°37'0 0.0
2017-Dec-25 14:54N 45°24' W 073°37'0 0.0
2017-Dec-25 14:30N 45°24' W 073°37'0 0.0
2017-Dec-25 14:00N 45°24' W 073°37'0 0.0
2017-Dec-25 13:30N 45°24' W 073°37'0 0.0
2017-Dec-25 13:00N 45°24' W 073°37'0 0.0
2017-Dec-25 12:30N 45°24' W 073°37'0 0.0
2017-Dec-25 12:00N 45°24' W 073°37'0 0.0
2017-Dec-25 11:30N 45°24' W 073°37'0 0.0
2017-Dec-25 11:00N 45°24' W 073°37'0 0.0
2017-Dec-25 10:30N 45°24' W 073°37'0 0.0
2017-Dec-25 10:00N 45°24' W 073°37'0 0.0
2017-Dec-25 09:30N 45°24' W 073°37'0 0.0
2017-Dec-25 09:00N 45°24' W 073°37'0 0.0
2017-Dec-25 08:30N 45°24' W 073°37'0 0.0
2017-Dec-25 08:00N 45°24' W 073°37'0 0.0
2017-Dec-25 07:29N 45°24' W 073°37'0 0.0
2017-Dec-25 07:00N 45°24' W 073°37'0 0.0
2017-Dec-25 06:30N 45°24' W 073°37'0 0.0
2017-Dec-25 05:58N 45°24' W 073°37'0 1.1
2017-Dec-25 05:30N 45°24' W 073°37'1 2.9
2017-Dec-25 05:00N 45°25' W 073°39'2 3.6
2017-Dec-25 04:30N 45°25' W 073°42'4 7.8
2017-Dec-25 04:00N 45°24' W 073°47'5 9.1
2017-Dec-25 03:30N 45°21' W 073°52'2 3.9
2017-Dec-25 02:57N 45°20' W 073°55'0 0.0
2017-Dec-25 02:27N 45°20' W 073°55'0 0.3
2017-Dec-25 02:00N 45°20' W 073°55'1 1.8
2017-Dec-25 01:30N 45°19' W 073°55'0 0.5
2017-Dec-25 01:00N 45°19' W 073°55'1 1.2
2017-Dec-25 00:30N 45°18' W 073°56'0 0.0
2017-Dec-25 00:00N 45°18' W 073°56'0 0.1
2017-Dec-24 23:30N 45°18' W 073°56'1 2.6
2017-Dec-24 23:00N 45°17' W 073°56'5 9.6
2017-Dec-24 22:30N 45°14' W 074°01'611.0
2017-Dec-24 21:59N 45°14' W 074°09'  
Track history (hours):
 
Tides and Currents Weather Stations Pressure Air Temp Water Temp Dewpoint Dewpoint Depression Visibility Wind Speed Wind Dir Waves Ship Positions

Federal Clyde

Last reported at 2017-Dec-26 00:43 UTC. Time now 2018-Feb-19 01:54 UTC.
Position N 45°30' W 073°31'.
Warning: this ship's position is 55 days out of date.

Length 200 m; draft 7.7 m.

Type: Cargo ship. MMSI: 538006470.

Date/timePositionNaut miles runAvg speedWind from/ knotsBaromVisibWave heightAir tempDewpointWater temp
2017-Dec-26 00:43N 45°30' W 073°31'0 0.7
2017-Dec-26 00:04N 45°30' W 073°31'0 1.1
2017-Dec-25 23:57N 45°29' W 073°31'1 0.6
2017-Dec-25 22:32N 45°29' W 073°31'0 0.6
2017-Dec-25 22:30N 45°29' W 073°31'1 2.3
2017-Dec-25 22:00N 45°27' W 073°30'3 4.7
2017-Dec-25 21:28N 45°25' W 073°31'2 2.4
2017-Dec-25 20:27N 45°24' W 073°34'0 0.3
2017-Dec-25 18:41N 45°24' W 073°35'0 0.0
2017-Dec-25 17:26N 45°24' W 073°35'0 0.6
2017-Dec-25 17:00N 45°24' W 073°35'1 1.5
2017-Dec-25 16:30N 45°24' W 073°36'0 0.6
2017-Dec-25 16:00N 45°24' W 073°37'0 0.0
2017-Dec-25 15:17N 45°24' W 073°37'0 0.0
2017-Dec-25 14:54N 45°24' W 073°37'0 0.0
2017-Dec-25 14:30N 45°24' W 073°37'0 0.0
2017-Dec-25 14:00N 45°24' W 073°37'0 0.0
2017-Dec-25 13:30N 45°24' W 073°37'0 0.0
2017-Dec-25 13:00N 45°24' W 073°37'0 0.0
2017-Dec-25 12:30N 45°24' W 073°37'0 0.0
2017-Dec-25 12:00N 45°24' W 073°37'0 0.0
2017-Dec-25 11:30N 45°24' W 073°37'0 0.0
2017-Dec-25 11:00N 45°24' W 073°37'0 0.0
2017-Dec-25 10:30N 45°24' W 073°37'0 0.0
2017-Dec-25 10:00N 45°24' W 073°37'0 0.0
2017-Dec-25 09:30N 45°24' W 073°37'0 0.0
2017-Dec-25 09:00N 45°24' W 073°37'0 0.0
2017-Dec-25 08:30N 45°24' W 073°37'0 0.0
2017-Dec-25 08:00N 45°24' W 073°37'0 0.0
2017-Dec-25 07:29N 45°24' W 073°37'0 0.0
2017-Dec-25 07:00N 45°24' W 073°37'0 0.0
2017-Dec-25 06:30N 45°24' W 073°37'0 0.0
2017-Dec-25 05:58N 45°24' W 073°37'0 1.1
2017-Dec-25 05:30N 45°24' W 073°37'1 2.9
2017-Dec-25 05:00N 45°25' W 073°39'2 3.6
2017-Dec-25 04:30N 45°25' W 073°42'4 7.8
2017-Dec-25 04:00N 45°24' W 073°47'5 9.1
2017-Dec-25 03:30N 45°21' W 073°52'2 3.9
2017-Dec-25 02:57N 45°20' W 073°55'0 0.0
2017-Dec-25 02:27N 45°20' W 073°55'0 0.3
2017-Dec-25 02:00N 45°20' W 073°55'1 1.8
2017-Dec-25 01:30N 45°19' W 073°55'0 0.5
2017-Dec-25 01:00N 45°19' W 073°55'1 1.2
2017-Dec-25 00:30N 45°18' W 073°56'0 0.0
2017-Dec-25 00:00N 45°18' W 073°56'0 0.1
2017-Dec-24 23:30N 45°18' W 073°56'1 2.6
2017-Dec-24 23:00N 45°17' W 073°56'5 9.6
2017-Dec-24 22:30N 45°14' W 074°01'611.0
2017-Dec-24 21:59N 45°14' W 074°09'  

Dump ship's entire track history